sensor_id;sensor_type;location;lat;lon;timestamp;pressure;altitude;pressure_sealevel;temperature;humidity
60099;BME280;62818;49.394;8.686;2022-08-14T00:00:13;99877.06;;;24.63;47.76
60099;BME280;62818;49.394;8.686;2022-08-14T00:01:15;99879.78;;;24.63;47.80
60099;BME280;62818;49.394;8.686;2022-08-14T00:02:16;99884.13;;;24.64;47.57
60099;BME280;62818;49.394;8.686;2022-08-14T00:03:26;99880.63;;;24.59;48.11
60099;BME280;62818;49.394;8.686;2022-08-14T00:04:34;99877.06;;;24.63;47.74
60099;BME280;62818;49.394;8.686;2022-08-14T00:05:38;99874.41;;;24.58;47.98
60099;BME280;62818;49.394;8.686;2022-08-14T00:06:39;99877.91;;;24.59;48.41
60099;BME280;62818;49.394;8.686;2022-08-14T00:07:42;99870.59;;;24.59;48.16
60099;BME280;62818;49.394;8.686;2022-08-14T00:08:45;99883.63;;;24.57;48.22
60099;BME280;62818;49.394;8.686;2022-08-14T00:09:48;99865.16;;;24.59;48.50
60099;BME280;62818;49.394;8.686;2022-08-14T00:10:54;99872.78;;;24.57;48.58
60099;BME280;62818;49.394;8.686;2022-08-14T00:11:57;99857.63;;;24.51;48.65
60099;BME280;62818;49.394;8.686;2022-08-14T00:12:58;99857.88;;;24.55;48.37
60099;BME280;62818;49.394;8.686;2022-08-14T00:14:02;99850.00;;;24.58;48.35
60099;BME280;62818;49.394;8.686;2022-08-14T00:15:16;99850.03;;;24.53;48.61
60099;BME280;62818;49.394;8.686;2022-08-14T00:16:22;99852.44;;;24.55;48.96
60099;BME280;62818;49.394;8.686;2022-08-14T00:17:27;99848.97;;;24.49;48.96
60099;BME280;62818;49.394;8.686;2022-08-14T00:18:28;99838.69;;;24.46;49.44
60099;BME280;62818;49.394;8.686;2022-08-14T00:19:28;99840.78;;;24.54;48.95
60099;BME280;62818;49.394;8.686;2022-08-14T00:20:35;99844.06;;;24.56;49.08
60099;BME280;62818;49.394;8.686;2022-08-14T00:21:38;99840.56;;;24.51;49.11
60099;BME280;62818;49.394;8.686;2022-08-14T00:22:41;99839.53;;;24.42;49.58
60099;BME280;62818;49.394;8.686;2022-08-14T00:23:44;99828.44;;;24.43;49.46
60099;BME280;62818;49.394;8.686;2022-08-14T00:24:44;99838.13;;;24.49;49.40
60099;BME280;62818;49.394;8.686;2022-08-14T00:25:47;99836.50;;;24.48;49.34
60099;BME280;62818;49.394;8.686;2022-08-14T00:26:53;99830.56;;;24.46;49.69
60099;BME280;62818;49.394;8.686;2022-08-14T00:27:54;99828.69;;;24.42;49.76
60099;BME280;62818;49.394;8.686;2022-08-14T00:28:57;99836.00;;;24.41;50.10
60099;BME280;62818;49.394;8.686;2022-08-14T00:29:58;99825.72;;;24.38;50.05
60099;BME280;62818;49.394;8.686;2022-08-14T00:31:07;99822.44;;;24.41;49.92
60099;BME280;62818;49.394;8.686;2022-08-14T00:32:07;99821.38;;;24.42;49.74
60099;BME280;62818;49.394;8.686;2022-08-14T00:33:10;99829.78;;;24.41;49.98
60099;BME280;62818;49.394;8.686;2022-08-14T00:34:12;99826.56;;;24.39;49.93
60099;BME280;62818;49.394;8.686;2022-08-14T00:35:12;99825.72;;;24.38;49.86
60099;BME280;62818;49.394;8.686;2022-08-14T00:36:13;99824.59;;;24.44;49.70
60099;BME280;62818;49.394;8.686;2022-08-14T00:37:14;99824.38;;;24.36;50.16
60099;BME280;62818;49.394;8.686;2022-08-14T00:38:16;99820.31;;;24.38;49.94
60099;BME280;62818;49.394;8.686;2022-08-14T00:39:19;99817.06;;;24.36;50.11
60099;BME280;62818;49.394;8.686;2022-08-14T00:40:23;99814.38;;;24.31;50.36
60099;BME280;62818;49.394;8.686;2022-08-14T00:41:29;99814.91;;;24.33;50.17
60099;BME280;62818;49.394;8.686;2022-08-14T00:42:33;99809.28;;;24.24;50.60
60099;BME280;62818;49.394;8.686;2022-08-14T00:43:35;99807.38;;;24.25;50.66
60099;BME280;62818;49.394;8.686;2022-08-14T00:44:40;99802.50;;;24.27;50.84
60099;BME280;62818;49.394;8.686;2022-08-14T00:45:42;99811.16;;;24.24;50.85
60099;BME280;62818;49.394;8.686;2022-08-14T00:46:45;99801.91;;;24.30;50.68
60099;BME280;62818;49.394;8.686;2022-08-14T00:47:48;99805.72;;;24.29;50.95
60099;BME280;62818;49.394;8.686;2022-08-14T00:48:51;99809.03;;;24.21;50.99
60099;BME280;62818;49.394;8.686;2022-08-14T00:49:55;99821.75;;;24.25;50.94
60099;BME280;62818;49.394;8.686;2022-08-14T00:50:56;99821.44;;;24.27;50.95
60099;BME280;62818;49.394;8.686;2022-08-14T00:51:59;99816.56;;;24.29;50.80
60099;BME280;62818;49.394;8.686;2022-08-14T00:53:00;99812.50;;;24.26;50.97
60099;BME280;62818;49.394;8.686;2022-08-14T00:54:07;99812.75;;;24.30;50.75
60099;BME280;62818;49.394;8.686;2022-08-14T00:55:08;99813.84;;;24.34;50.45
60099;BME280;62818;49.394;8.686;2022-08-14T00:56:11;99798.69;;;24.28;50.67
60099;BME280;62818;49.394;8.686;2022-08-14T00:57:12;99807.34;;;24.30;50.95
60099;BME280;62818;49.394;8.686;2022-08-14T00:58:18;99805.50;;;24.25;50.85
60099;BME280;62818;49.394;8.686;2022-08-14T00:59:30;99802.50;;;24.27;51.21
60099;BME280;62818;49.394;8.686;2022-08-14T01:00:31;99804.16;;;24.18;51.58
60099;BME280;62818;49.394;8.686;2022-08-14T01:01:36;99800.09;;;24.15;51.49
60099;BME280;62818;49.394;8.686;2022-08-14T01:02:40;99794.91;;;24.24;51.16
60099;BME280;62818;49.394;8.686;2022-08-14T01:03:43;99798.44;;;24.19;51.17
60099;BME280;62818;49.394;8.686;2022-08-14T01:04:45;99798.19;;;24.21;51.14
60099;BME280;62818;49.394;8.686;2022-08-14T01:05:49;99804.69;;;24.25;51.17
60099;BME280;62818;49.394;8.686;2022-08-14T01:06:53;99788.16;;;24.21;51.44
60099;BME280;62818;49.394;8.686;2022-08-14T01:07:54;99793.31;;;24.23;51.43
60099;BME280;62818;49.394;8.686;2022-08-14T01:09:02;99789.50;;;24.19;51.73
60099;BME280;62818;49.394;8.686;2022-08-14T01:10:06;99799.03;;;24.11;51.91
60099;BME280;62818;49.394;8.686;2022-08-14T01:11:11;99794.38;;;24.22;51.42
60099;BME280;62818;49.394;8.686;2022-08-14T01:12:16;99788.16;;;24.21;51.50
60099;BME280;62818;49.394;8.686;2022-08-14T01:13:23;99794.69;;;24.15;51.83
60099;BME280;62818;49.394;8.686;2022-08-14T01:14:26;99786.28;;;24.17;51.51
60099;BME280;62818;49.394;8.686;2022-08-14T01:15:27;99790.38;;;24.14;51.63
60099;BME280;62818;49.394;8.686;2022-08-14T01:16:27;99788.47;;;24.15;51.98
60099;BME280;62818;49.394;8.686;2022-08-14T01:17:31;99784.09;;;24.19;51.66
60099;BME280;62818;49.394;8.686;2022-08-14T01:18:55;99786.84;;;24.14;51.76
60099;BME280;62818;49.394;8.686;2022-08-14T01:20:14;99790.09;;;24.16;51.69
60099;BME280;62818;49.394;8.686;2022-08-14T01:21:36;99781.44;;;24.14;51.79
60099;BME280;62818;49.394;8.686;2022-08-14T01:22:38;99772.50;;;24.13;51.91
60099;BME280;62818;49.394;8.686;2022-08-14T01:23:44;99784.16;;;24.09;51.96
60099;BME280;62818;49.394;8.686;2022-08-14T01:24:50;99784.16;;;24.09;52.37
60099;BME280;62818;49.394;8.686;2022-08-14T01:25:51;99775.50;;;24.12;51.81
60099;BME280;62818;49.394;8.686;2022-08-14T01:26:51;99780.38;;;24.10;52.19
60099;BME280;62818;49.394;8.686;2022-08-14T01:27:54;99786.84;;;24.04;52.41
60099;BME280;62818;49.394;8.686;2022-08-14T01:28:56;99773.88;;;24.06;52.15
60099;BME280;62818;49.394;8.686;2022-08-14T01:29:58;99768.72;;;24.04;52.12
60099;BME280;62818;49.394;8.686;2022-08-14T01:31:11;99762.47;;;24.04;52.32
60099;BME280;62818;49.394;8.686;2022-08-14T01:32:18;99762.53;;;23.99;52.62
60099;BME280;62818;49.394;8.686;2022-08-14T01:33:22;99764.66;;;24.02;52.52
60099;BME280;62818;49.394;8.686;2022-08-14T01:34:27;99761.41;;;24.00;52.50
60099;BME280;62818;49.394;8.686;2022-08-14T01:35:30;99770.38;;;24.00;52.54
60099;BME280;62818;49.394;8.686;2022-08-14T01:36:32;99763.06;;;23.96;52.54
60099;BME280;62818;49.394;8.686;2022-08-14T01:37:37;99758.47;;;23.96;52.44
60099;BME280;62818;49.394;8.686;2022-08-14T01:38:39;99748.16;;;24.03;52.42
60099;BME280;62818;49.394;8.686;2022-08-14T01:39:41;99766.84;;;23.95;52.76
60099;BME280;62818;49.394;8.686;2022-08-14T01:40:48;99752.25;;;23.96;52.63
60099;BME280;62818;49.394;8.686;2022-08-14T01:41:51;99751.69;;;23.99;52.64
60099;BME280;62818;49.394;8.686;2022-08-14T01:43:00;99742.47;;;23.95;52.32
60099;BME280;62818;49.394;8.686;2022-08-14T01:44:07;99743.03;;;23.97;52.72
60099;BME280;62818;49.394;8.686;2022-08-14T01:45:16;99731.13;;;23.93;52.55
60099;BME280;62818;49.394;8.686;2022-08-14T01:46:18;99736.31;;;23.89;52.85
60099;BME280;62818;49.394;8.686;2022-08-14T01:47:21;99737.13;;;23.90;52.83
60099;BME280;62818;49.394;8.686;2022-08-14T01:48:21;99728.94;;;23.95;52.64
60099;BME280;62818;49.394;8.686;2022-08-14T01:49:22;99730.88;;;23.94;52.82
60099;BME280;62818;49.394;8.686;2022-08-14T01:50:25;99733.31;;;23.91;52.90
60099;BME280;62818;49.394;8.686;2022-08-14T01:51:29;99724.63;;;23.99;52.11
60099;BME280;62818;49.394;8.686;2022-08-14T01:52:31;99727.34;;;23.94;52.82
60099;BME280;62818;49.394;8.686;2022-08-14T01:53:35;99728.47;;;23.88;52.68
60099;BME280;62818;49.394;8.686;2022-08-14T01:54:38;99707.88;;;23.92;52.64
60099;BME280;62818;49.394;8.686;2022-08-14T01:55:39;99717.88;;;23.96;52.43
60099;BME280;62818;49.394;8.686;2022-08-14T01:56:42;99724.13;;;23.87;52.89
60099;BME280;62818;49.394;8.686;2022-08-14T01:57:43;99716.00;;;23.87;52.88
60099;BME280;62818;49.394;8.686;2022-08-14T01:58:49;99721.41;;;23.87;52.88
60099;BME280;62818;49.394;8.686;2022-08-14T01:59:55;99725.78;;;23.83;53.07
60099;BME280;62818;49.394;8.686;2022-08-14T02:00:58;99724.13;;;23.82;53.25
60099;BME280;62818;49.394;8.686;2022-08-14T02:02:01;99726.59;;;23.78;53.30
60099;BME280;62818;49.394;8.686;2022-08-14T02:03:11;99725.84;;;23.73;53.67
60099;BME280;62818;49.394;8.686;2022-08-14T02:04:14;99729.31;;;23.73;53.45
60099;BME280;62818;49.394;8.686;2022-08-14T02:05:14;99735.03;;;23.72;53.64
60099;BME280;62818;49.394;8.686;2022-08-14T02:06:16;99721.78;;;23.70;53.52
60099;BME280;62818;49.394;8.686;2022-08-14T02:07:19;99728.78;;;23.71;53.72
60099;BME280;62818;49.394;8.686;2022-08-14T02:08:22;99717.16;;;23.71;53.63
60099;BME280;62818;49.394;8.686;2022-08-14T02:09:26;99722.84;;;23.69;53.75
60099;BME280;62818;49.394;8.686;2022-08-14T02:10:34;99714.72;;;23.74;53.24
60099;BME280;62818;49.394;8.686;2022-08-14T02:11:39;99713.91;;;23.69;53.51
60099;BME280;62818;49.394;8.686;2022-08-14T02:12:40;99709.03;;;23.71;53.48
60099;BME280;62818;49.394;8.686;2022-08-14T02:13:47;99712.84;;;23.75;53.09
60099;BME280;62818;49.394;8.686;2022-08-14T02:14:57;99723.13;;;23.73;53.10
60099;BME280;62818;49.394;8.686;2022-08-14T02:16:02;99715.56;;;23.65;53.77
60099;BME280;62818;49.394;8.686;2022-08-14T02:17:03;99723.66;;;23.70;53.49
60099;BME280;62818;49.394;8.686;2022-08-14T02:18:08;99716.38;;;23.70;53.68
60099;BME280;62818;49.394;8.686;2022-08-14T02:19:19;99711.19;;;23.74;53.37
60099;BME280;62818;49.394;8.686;2022-08-14T02:20:30;99709.03;;;23.71;53.37
60099;BME280;62818;49.394;8.686;2022-08-14T02:21:39;99721.50;;;23.67;53.65
60099;BME280;62818;49.394;8.686;2022-08-14T02:22:42;99709.59;;;23.73;53.18
60099;BME280;62818;49.394;8.686;2022-08-14T02:23:47;99716.06;;;23.72;53.31
60099;BME280;62818;49.394;8.686;2022-08-14T02:24:52;99712.84;;;23.70;53.43
60099;BME280;62818;49.394;8.686;2022-08-14T02:25:55;99711.19;;;23.74;53.11
60099;BME280;62818;49.394;8.686;2022-08-14T02:26:59;99707.72;;;23.68;53.20
60099;BME280;62818;49.394;8.686;2022-08-14T02:28:02;99712.84;;;23.65;53.22
60099;BME280;62818;49.394;8.686;2022-08-14T02:29:10;99718.78;;;23.67;53.29
60099;BME280;62818;49.394;8.686;2022-08-14T02:30:15;99705.03;;;23.63;53.57
60099;BME280;62818;49.394;8.686;2022-08-14T02:31:17;99713.97;;;23.64;53.49
60099;BME280;62818;49.394;8.686;2022-08-14T02:32:17;99703.38;;;23.62;53.57
60099;BME280;62818;49.394;8.686;2022-08-14T02:33:19;99699.34;;;23.59;53.77
60099;BME280;62818;49.394;8.686;2022-08-14T02:34:30;99701.22;;;23.64;53.56
60099;BME280;62818;49.394;8.686;2022-08-14T02:35:39;99693.09;;;23.64;53.44
60099;BME280;62818;49.394;8.686;2022-08-14T02:36:41;99693.91;;;23.59;53.24
60099;BME280;62818;49.394;8.686;2022-08-14T02:37:49;99699.09;;;23.56;53.84
60099;BME280;62818;49.394;8.686;2022-08-14T02:38:52;99688.50;;;23.59;53.56
60099;BME280;62818;49.394;8.686;2022-08-14T02:39:56;99688.03;;;23.52;53.76
60099;BME280;62818;49.394;8.686;2022-08-14T02:40:57;99690.69;;;23.57;53.81
60099;BME280;62818;49.394;8.686;2022-08-14T02:41:58;99680.97;;;23.56;53.70
60099;BME280;62818;49.394;8.686;2022-08-14T02:43:01;99690.44;;;23.54;53.75
60099;BME280;62818;49.394;8.686;2022-08-14T02:44:03;99674.22;;;23.54;53.90
60099;BME280;62818;49.394;8.686;2022-08-14T02:45:06;99684.22;;;23.53;53.76
60099;BME280;62818;49.394;8.686;2022-08-14T02:46:09;99679.63;;;23.49;53.77
60099;BME280;62818;49.394;8.686;2022-08-14T02:47:13;99679.63;;;23.54;53.16
60099;BME280;62818;49.394;8.686;2022-08-14T02:48:16;99680.44;;;23.54;53.07
60099;BME280;62818;49.394;8.686;2022-08-14T02:49:19;99685.56;;;23.61;53.14
60099;BME280;62818;49.394;8.686;2022-08-14T02:50:28;99679.63;;;23.54;53.37
60099;BME280;62818;49.394;8.686;2022-08-14T02:51:29;99681.53;;;23.48;53.46
60099;BME280;62818;49.394;8.686;2022-08-14T02:52:29;99687.16;;;23.62;52.27
60099;BME280;62818;49.394;8.686;2022-08-14T02:53:34;99690.16;;;23.61;52.54
60099;BME280;62818;49.394;8.686;2022-08-14T02:54:34;99687.72;;;23.59;52.80
60099;BME280;62818;49.394;8.686;2022-08-14T02:55:38;99684.22;;;23.58;52.84
60099;BME280;62818;49.394;8.686;2022-08-14T02:56:39;99694.22;;;23.53;52.85
60099;BME280;62818;49.394;8.686;2022-08-14T02:57:42;99689.63;;;23.53;53.06
60099;BME280;62818;49.394;8.686;2022-08-14T02:58:45;99690.22;;;23.40;53.54
60099;BME280;62818;49.394;8.686;2022-08-14T02:59:47;99693.47;;;23.27;54.26
60099;BME280;62818;49.394;8.686;2022-08-14T03:00:54;99692.69;;;23.07;54.89
60099;BME280;62818;49.394;8.686;2022-08-14T03:01:58;99695.41;;;23.12;54.51
60099;BME280;62818;49.394;8.686;2022-08-14T03:02:59;99695.13;;;23.23;54.25
60099;BME280;62818;49.394;8.686;2022-08-14T03:04:02;99688.69;;;22.99;55.24
60099;BME280;62818;49.394;8.686;2022-08-14T03:05:06;99686.50;;;23.01;55.00
60099;BME280;62818;49.394;8.686;2022-08-14T03:06:08;99700.00;;;23.26;54.16
60099;BME280;62818;49.394;8.686;2022-08-14T03:07:12;99693.03;;;22.70;56.02
60099;BME280;62818;49.394;8.686;2022-08-14T03:08:19;99694.66;;;22.86;55.53
60099;BME280;62818;49.394;8.686;2022-08-14T03:09:20;99694.59;;;23.11;54.25
60099;BME280;62818;49.394;8.686;2022-08-14T03:10:23;99685.13;;;23.14;54.34
60099;BME280;62818;49.394;8.686;2022-08-14T03:11:24;99692.16;;;23.35;53.68
60099;BME280;62818;49.394;8.686;2022-08-14T03:12:28;99694.09;;;22.94;55.24
60099;BME280;62818;49.394;8.686;2022-08-14T03:13:34;99701.16;;;22.80;55.40
60099;BME280;62818;49.394;8.686;2022-08-14T03:14:35;99701.16;;;22.60;56.37
60099;BME280;62818;49.394;8.686;2022-08-14T03:15:39;99700.88;;;22.81;55.85
60099;BME280;62818;49.394;8.686;2022-08-14T03:16:44;99702.75;;;22.61;56.25
60099;BME280;62818;49.394;8.686;2022-08-14T03:17:44;99710.31;;;22.79;55.88
60099;BME280;62818;49.394;8.686;2022-08-14T03:18:46;99704.63;;;23.06;54.74
60099;BME280;62818;49.394;8.686;2022-08-14T03:19:52;99715.16;;;22.42;57.03
60099;BME280;62818;49.394;8.686;2022-08-14T03:20:55;99708.66;;;22.53;56.71
60099;BME280;62818;49.394;8.686;2022-08-14T03:21:56;99704.38;;;22.62;56.21
60099;BME280;62818;49.394;8.686;2022-08-14T03:22:57;99713.03;;;22.69;56.13
60099;BME280;62818;49.394;8.686;2022-08-14T03:23:59;99715.19;;;22.72;55.92
60099;BME280;62818;49.394;8.686;2022-08-14T03:25:10;99713.03;;;22.79;55.65
60099;BME280;62818;49.394;8.686;2022-08-14T03:26:15;99717.31;;;23.00;55.14
60099;BME280;62818;49.394;8.686;2022-08-14T03:27:17;99714.66;;;22.60;56.50
60099;BME280;62818;49.394;8.686;2022-08-14T03:28:19;99716.28;;;22.91;55.31
60099;BME280;62818;49.394;8.686;2022-08-14T03:29:25;99722.69;;;23.40;53.58
60099;BME280;62818;49.394;8.686;2022-08-14T03:30:28;99724.38;;;22.86;55.48
60099;BME280;62818;49.394;8.686;2022-08-14T03:31:33;99720.03;;;22.85;55.45
60099;BME280;62818;49.394;8.686;2022-08-14T03:32:33;99724.31;;;22.41;56.46
60099;BME280;62818;49.394;8.686;2022-08-14T03:33:39;99719.44;;;22.43;56.78
60099;BME280;62818;49.394;8.686;2022-08-14T03:34:41;99726.97;;;22.16;57.54
60099;BME280;62818;49.394;8.686;2022-08-14T03:35:42;99720.06;;;22.60;56.24
60099;BME280;62818;49.394;8.686;2022-08-14T03:36:43;99714.06;;;22.98;55.08
60099;BME280;62818;49.394;8.686;2022-08-14T03:37:46;99717.31;;;22.50;56.66
60099;BME280;62818;49.394;8.686;2022-08-14T03:38:50;99716.81;;;22.93;55.18
60099;BME280;62818;49.394;8.686;2022-08-14T03:39:53;99717.59;;;22.78;55.90
60099;BME280;62818;49.394;8.686;2022-08-14T03:40:54;99707.31;;;23.11;54.58
60099;BME280;62818;49.394;8.686;2022-08-14T03:41:57;99718.41;;;22.94;55.08
60099;BME280;62818;49.394;8.686;2022-08-14T03:42:57;99725.91;;;22.22;57.85
60099;BME280;62818;49.394;8.686;2022-08-14T03:43:59;99723.28;;;22.67;56.22
60099;BME280;62818;49.394;8.686;2022-08-14T03:45:06;99718.63;;;23.43;53.64
60099;BME280;62818;49.394;8.686;2022-08-14T03:46:13;99723.13;;;23.68;52.60
60099;BME280;62818;49.394;8.686;2022-08-14T03:47:14;99721.28;;;23.53;53.38
60099;BME280;62818;49.394;8.686;2022-08-14T03:48:19;99710.47;;;23.53;53.02
60099;BME280;62818;49.394;8.686;2022-08-14T03:49:20;99703.66;;;23.66;52.79
60099;BME280;62818;49.394;8.686;2022-08-14T03:50:25;99717.81;;;23.27;54.02
60099;BME280;62818;49.394;8.686;2022-08-14T03:51:27;99706.84;;;23.78;52.51
60099;BME280;62818;49.394;8.686;2022-08-14T03:52:28;99696.97;;;23.38;53.77
60099;BME280;62818;49.394;8.686;2022-08-14T03:53:31;99711.38;;;22.38;57.42
60099;BME280;62818;49.394;8.686;2022-08-14T03:54:31;99712.66;;;22.15;58.30
60099;BME280;62818;49.394;8.686;2022-08-14T03:55:34;99709.53;;;22.73;56.34
60099;BME280;62818;49.394;8.686;2022-08-14T03:56:38;99714.78;;;23.54;53.26
60099;BME280;62818;49.394;8.686;2022-08-14T03:57:43;99715.22;;;23.81;52.35
60099;BME280;62818;49.394;8.686;2022-08-14T03:58:51;99713.28;;;23.92;51.80
60099;BME280;62818;49.394;8.686;2022-08-14T03:59:57;99711.09;;;23.99;51.55
60099;BME280;62818;49.394;8.686;2022-08-14T04:01:02;99701.63;;;23.91;52.17
60099;BME280;62818;49.394;8.686;2022-08-14T04:02:07;99704.28;;;23.47;53.52
60099;BME280;62818;49.394;8.686;2022-08-14T04:03:10;99703.81;;;23.89;52.18
60099;BME280;62818;49.394;8.686;2022-08-14T04:04:11;99697.84;;;23.92;51.87
60099;BME280;62818;49.394;8.686;2022-08-14T04:05:12;99697.53;;;23.99;51.69
60099;BME280;62818;49.394;8.686;2022-08-14T04:06:14;99704.03;;;23.39;53.55
60099;BME280;62818;49.394;8.686;2022-08-14T04:07:19;99701.47;;;23.73;52.71
60099;BME280;62818;49.394;8.686;2022-08-14T04:08:23;99703.22;;;23.28;54.22
60099;BME280;62818;49.394;8.686;2022-08-14T04:09:24;99706.59;;;23.74;52.41
60099;BME280;62818;49.394;8.686;2022-08-14T04:10:28;99706.81;;;23.83;52.38
60099;BME280;62818;49.394;8.686;2022-08-14T04:11:29;99710.16;;;23.59;53.20
60099;BME280;62818;49.394;8.686;2022-08-14T04:12:29;99704.84;;;23.34;54.01
60099;BME280;62818;49.394;8.686;2022-08-14T04:13:34;99702.53;;;23.72;52.85
60099;BME280;62818;49.394;8.686;2022-08-14T04:14:42;99702.13;;;23.39;53.75
60099;BME280;62818;49.394;8.686;2022-08-14T04:15:44;99698.63;;;23.93;52.07
60099;BME280;62818;49.394;8.686;2022-08-14T04:16:47;99699.75;;;23.92;52.12
60099;BME280;62818;49.394;8.686;2022-08-14T04:17:47;99700.56;;;23.92;51.82
60099;BME280;62818;49.394;8.686;2022-08-14T04:18:52;99704.44;;;23.66;52.86
60099;BME280;62818;49.394;8.686;2022-08-14T04:19:58;99713.47;;;23.31;53.91
60099;BME280;62818;49.394;8.686;2022-08-14T04:21:03;99709.00;;;23.86;52.17
60099;BME280;62818;49.394;8.686;2022-08-14T04:22:09;99709.00;;;23.86;52.13
60099;BME280;62818;49.394;8.686;2022-08-14T04:23:12;99705.34;;;23.31;54.38
60099;BME280;62818;49.394;8.686;2022-08-14T04:24:13;99705.94;;;23.28;54.28
60099;BME280;62818;49.394;8.686;2022-08-14T04:25:16;99714.28;;;23.42;53.93
60099;BME280;62818;49.394;8.686;2022-08-14T04:26:19;99705.25;;;23.77;52.68
60099;BME280;62818;49.394;8.686;2022-08-14T04:27:21;99701.44;;;23.78;52.43
60099;BME280;62818;49.394;8.686;2022-08-14T04:28:22;99703.06;;;23.79;52.26
60099;BME280;62818;49.394;8.686;2022-08-14T04:29:24;99710.03;;;23.90;51.95
60099;BME280;62818;49.394;8.686;2022-08-14T04:30:26;99704.06;;;23.93;51.98
60099;BME280;62818;49.394;8.686;2022-08-14T04:31:30;99703.00;;;23.89;52.15
60099;BME280;62818;49.394;8.686;2022-08-14T04:32:31;99701.94;;;23.90;52.03
60099;BME280;62818;49.394;8.686;2022-08-14T04:33:33;99704.63;;;23.90;52.09
60099;BME280;62818;49.394;8.686;2022-08-14T04:34:35;99707.28;;;23.95;52.12
60099;BME280;62818;49.394;8.686;2022-08-14T04:35:39;99704.22;;;23.63;53.03
60099;BME280;62818;49.394;8.686;2022-08-14T04:36:42;99706.88;;;23.73;52.57
60099;BME280;62818;49.394;8.686;2022-08-14T04:38:08;99701.03;;;23.50;53.50
60099;BME280;62818;49.394;8.686;2022-08-14T04:39:29;99702.75;;;22.91;55.39
60099;BME280;62818;49.394;8.686;2022-08-14T04:40:48;99697.59;;;22.95;55.51
60099;BME280;62818;49.394;8.686;2022-08-14T04:42:07;99706.38;;;23.61;53.15
60099;BME280;62818;49.394;8.686;2022-08-14T04:43:26;99705.03;;;23.63;53.22
60099;BME280;62818;49.394;8.686;2022-08-14T04:44:39;99702.84;;;23.65;53.21
60099;BME280;62818;49.394;8.686;2022-08-14T04:45:42;99709.78;;;23.86;52.40
60099;BME280;62818;49.394;8.686;2022-08-14T04:46:47;99705.25;;;23.77;52.50
60099;BME280;62818;49.394;8.686;2022-08-14T04:49:12;99713.38;;;23.72;52.58
60099;BME280;62818;49.394;8.686;2022-08-14T04:50:15;99710.59;;;23.87;52.24
60099;BME280;62818;49.394;8.686;2022-08-14T04:51:19;99711.38;;;23.92;52.20
60099;BME280;62818;49.394;8.686;2022-08-14T04:52:26;99704.13;;;23.83;52.39
60099;BME280;62818;49.394;8.686;2022-08-14T04:53:28;99713.66;;;23.70;53.04
60099;BME280;62818;49.394;8.686;2022-08-14T04:54:30;99705.25;;;23.77;52.67
60099;BME280;62818;49.394;8.686;2022-08-14T04:55:35;99713.06;;;23.83;52.58
60099;BME280;62818;49.394;8.686;2022-08-14T04:56:36;99716.09;;;23.67;53.37
60099;BME280;62818;49.394;8.686;2022-08-14T04:57:37;99708.63;;;23.28;54.61
60099;BME280;62818;49.394;8.686;2022-08-14T04:58:44;99713.44;;;23.51;53.59
60099;BME280;62818;49.394;8.686;2022-08-14T04:59:49;99711.13;;;23.84;52.60
60099;BME280;62818;49.394;8.686;2022-08-14T05:00:55;99713.81;;;23.89;52.56
60099;BME280;62818;49.394;8.686;2022-08-14T05:01:57;99720.28;;;23.98;52.04
60099;BME280;62818;49.394;8.686;2022-08-14T05:03:00;99711.63;;;23.96;52.07
60099;BME280;62818;49.394;8.686;2022-08-14T05:04:06;99714.44;;;23.71;53.38
60099;BME280;62818;49.394;8.686;2022-08-14T05:05:07;99714.34;;;23.91;52.43
60099;BME280;62818;49.394;8.686;2022-08-14T05:06:11;99713.59;;;23.85;52.57
60099;BME280;62818;49.394;8.686;2022-08-14T05:07:12;99718.94;;;23.95;52.27
60099;BME280;62818;49.394;8.686;2022-08-14T05:08:14;99717.03;;;24.01;52.27
60099;BME280;62818;49.394;8.686;2022-08-14T05:09:17;99716.75;;;24.07;51.90
60099;BME280;62818;49.394;8.686;2022-08-14T05:10:17;99712.69;;;24.05;52.20
60099;BME280;62818;49.394;8.686;2022-08-14T05:11:23;99711.19;;;23.79;53.07
60099;BME280;62818;49.394;8.686;2022-08-14T05:12:23;99712.53;;;23.76;52.94
60099;BME280;62818;49.394;8.686;2022-08-14T05:13:26;99720.28;;;23.93;52.71
60099;BME280;62818;49.394;8.686;2022-08-14T05:14:30;99712.13;;;24.03;52.01
60099;BME280;62818;49.394;8.686;2022-08-14T05:15:32;99720.81;;;24.05;52.06
60099;BME280;62818;49.394;8.686;2022-08-14T05:16:37;99717.88;;;23.91;52.53
60099;BME280;62818;49.394;8.686;2022-08-14T05:17:41;99717.06;;;23.91;52.46
60099;BME280;62818;49.394;8.686;2022-08-14T05:18:42;99720.81;;;24.05;51.97
60099;BME280;62818;49.394;8.686;2022-08-14T05:19:45;99713.75;;;24.09;52.10
60099;BME280;62818;49.394;8.686;2022-08-14T05:20:50;99723.81;;;23.93;52.43
60099;BME280;62818;49.394;8.686;2022-08-14T05:22:00;99713.25;;;23.97;52.46
60099;BME280;62818;49.394;8.686;2022-08-14T05:23:01;99714.34;;;23.96;52.55
60099;BME280;62818;49.394;8.686;2022-08-14T05:24:04;99709.22;;;23.94;52.39
60099;BME280;62818;49.394;8.686;2022-08-14T05:25:10;99700.78;;;24.01;52.37
60099;BME280;62818;49.394;8.686;2022-08-14T05:26:11;99711.63;;;24.01;52.28
60099;BME280;62818;49.394;8.686;2022-08-14T05:27:12;99706.97;;;24.01;52.33
60099;BME280;62818;49.394;8.686;2022-08-14T05:28:16;99698.63;;;23.93;52.70
60099;BME280;62818;49.394;8.686;2022-08-14T05:29:21;99694.78;;;24.04;52.46
60099;BME280;62818;49.394;8.686;2022-08-14T05:30:23;99696.13;;;24.11;52.15
60099;BME280;62818;49.394;8.686;2022-08-14T05:31:24;99703.91;;;23.69;53.24
60099;BME280;62818;49.394;8.686;2022-08-14T05:32:27;99697.03;;;23.92;52.76
60099;BME280;62818;49.394;8.686;2022-08-14T05:33:29;99698.31;;;24.14;52.31
60099;BME280;62818;49.394;8.686;2022-08-14T05:34:34;99694.28;;;24.07;52.43
60099;BME280;62818;49.394;8.686;2022-08-14T05:35:37;99699.13;;;24.10;52.13
60099;BME280;62818;49.394;8.686;2022-08-14T05:36:40;99695.91;;;24.08;52.28
60099;BME280;62818;49.394;8.686;2022-08-14T05:37:43;99694.78;;;24.04;52.50
60099;BME280;62818;49.394;8.686;2022-08-14T05:38:46;99704.28;;;24.01;52.76
60099;BME280;62818;49.394;8.686;2022-08-14T05:39:49;99702.09;;;24.08;52.65